CMA CGM Aristote — MRPN4 — position and weather

sailwx.info

Track history (hours):
 
Tides and Currents Weather Stations Pressure Air Temp Water Temp Dewpoint Dewpoint Depression Visibility Wind Speed Wind Dir Waves Ship Positions

CMA CGM Aristote

Last reported at 2015-Jan-31 01:14 UTC. Time now 2015-Feb-02 00:20 UTC.
Position N 17°45' W 063°06'.

Length 170 m; draft 8.8 m.

Type: Ship (hazmat cat A). MMSI: 235054581.

Date/timePositionNaut miles runAvg speedWind from/ knotsBaromVisibWave heightAir tempDewpointWater temp
2015-Jan-31 01:14N 17°45' W 063°06'1417.9
2015-Jan-31 00:28N 17°59' W 063°05'3 3.2
2015-Jan-30 23:33N 18°01' W 063°03'0 0.0
2015-Jan-30 22:18N 18°01' W 063°03'2 0.2
2015-Jan-30 09:30N 17°60' W 063°05'  
2015-Jan-25 16:33N 36°39' W 029°04'5819.1
2015-Jan-25 13:33N 37°10' W 028°03'1919.0
2015-Jan-25 12:33N 37°20' W 027°42'1919.4
2015-Jan-25 11:33N 37°30' W 027°22'1919.3
2015-Jan-25 10:34N 37°40' W 027°01'1919.2
2015-Jan-25 09:33N 37°50' W 026°41'1918.8
2015-Jan-25 08:34N 37°60' W 026°20'1919.1
2015-Jan-25 07:33N 38°11' W 026°01'1919.0
2015-Jan-25 06:33N 38°23' W 025°41'1918.8
2015-Jan-25 05:34N 38°34' W 025°22'1918.9
2015-Jan-25 04:33N 38°46' W 025°03'4519.1
2015-Jan-25 02:11N 39°13' W 024°16'  
2015-Jan-22 14:13N 50°01' W 002°55'8717.6
2015-Jan-22 09:14N 49°42' W 000°43'5 6.6
2015-Jan-22 08:33N 49°40' W 000°36'3 3.1
2015-Jan-22 07:34N 49°39' W 000°32'1716.8
2015-Jan-22 06:34N 49°32' W 000°09'1111.5
2015-Jan-22 05:33N 49°28' E 000°08'1 1.3
2015-Jan-22 04:31N 49°29' E 000°10'0 0.0
2015-Jan-22 03:31N 49°29' E 000°10'0 0.0
2015-Jan-22 02:31N 49°29' E 000°10'0 0.0
2015-Jan-22 01:31N 49°29' E 000°10'0 0.0
2015-Jan-22 00:31N 49°29' E 000°10'0 0.0
2015-Jan-21 23:31N 49°29' E 000°10'0 0.0
2015-Jan-21 22:49N 49°29' E 000°10'0 0.0
2015-Jan-21 22:46N 49°29' E 000°10'0 0.0
2015-Jan-21 22:31N 49°29' E 000°10'0 0.0
2015-Jan-21 21:31N 49°29' E 000°10'0 0.0
2015-Jan-21 20:31N 49°29' E 000°10'0 0.0
2015-Jan-21 19:31N 49°29' E 000°10'0 0.0
2015-Jan-21 18:31N 49°29' E 000°10'0 0.0
2015-Jan-21 17:31N 49°29' E 000°10'0 0.0
2015-Jan-21 16:31N 49°29' E 000°10'0 0.0
2015-Jan-21 15:31N 49°29' E 000°10'0 0.0
2015-Jan-21 14:31N 49°29' E 000°10'0 0.0
2015-Jan-21 13:31N 49°29' E 000°10'0 0.0
2015-Jan-21 12:31N 49°29' E 000°10'0 0.0
2015-Jan-21 11:31N 49°29' E 000°10'0 0.0
2015-Jan-21 10:31N 49°29' E 000°10'0 0.0
2015-Jan-21 09:31N 49°29' E 000°10'0 0.0
2015-Jan-21 08:31N 49°29' E 000°10'0 0.0
2015-Jan-21 07:31N 49°29' E 000°10'0 0.0
2015-Jan-21 06:31N 49°29' E 000°10'0 0.3
2015-Jan-21 05:33N 49°28' E 000°10'8 8.2
2015-Jan-21 04:33N 49°31' W 000°03'1111.1
2015-Jan-21 03:33N 49°40' W 000°11'  
Track history (hours):
 
Tides and Currents Weather Stations Pressure Air Temp Water Temp Dewpoint Dewpoint Depression Visibility Wind Speed Wind Dir Waves Ship Positions

CMA CGM Aristote

Last reported at 2015-Jan-31 01:14 UTC. Time now 2015-Feb-02 00:20 UTC.
Position N 17°45' W 063°06'.

Length 170 m; draft 8.8 m.

Type: Ship (hazmat cat A). MMSI: 235054581.

Date/timePositionNaut miles runAvg speedWind from/ knotsBaromVisibWave heightAir tempDewpointWater temp
2015-Jan-31 01:14N 17°45' W 063°06'1417.9
2015-Jan-31 00:28N 17°59' W 063°05'3 3.2
2015-Jan-30 23:33N 18°01' W 063°03'0 0.0
2015-Jan-30 22:18N 18°01' W 063°03'2 0.2
2015-Jan-30 09:30N 17°60' W 063°05'  
2015-Jan-25 16:33N 36°39' W 029°04'5819.1
2015-Jan-25 13:33N 37°10' W 028°03'1919.0
2015-Jan-25 12:33N 37°20' W 027°42'1919.4
2015-Jan-25 11:33N 37°30' W 027°22'1919.3
2015-Jan-25 10:34N 37°40' W 027°01'1919.2
2015-Jan-25 09:33N 37°50' W 026°41'1918.8
2015-Jan-25 08:34N 37°60' W 026°20'1919.1
2015-Jan-25 07:33N 38°11' W 026°01'1919.0
2015-Jan-25 06:33N 38°23' W 025°41'1918.8
2015-Jan-25 05:34N 38°34' W 025°22'1918.9
2015-Jan-25 04:33N 38°46' W 025°03'4519.1
2015-Jan-25 02:11N 39°13' W 024°16'  
2015-Jan-22 14:13N 50°01' W 002°55'8717.6
2015-Jan-22 09:14N 49°42' W 000°43'5 6.6
2015-Jan-22 08:33N 49°40' W 000°36'3 3.1
2015-Jan-22 07:34N 49°39' W 000°32'1716.8
2015-Jan-22 06:34N 49°32' W 000°09'1111.5
2015-Jan-22 05:33N 49°28' E 000°08'1 1.3
2015-Jan-22 04:31N 49°29' E 000°10'0 0.0
2015-Jan-22 03:31N 49°29' E 000°10'0 0.0
2015-Jan-22 02:31N 49°29' E 000°10'0 0.0
2015-Jan-22 01:31N 49°29' E 000°10'0 0.0
2015-Jan-22 00:31N 49°29' E 000°10'0 0.0
2015-Jan-21 23:31N 49°29' E 000°10'0 0.0
2015-Jan-21 22:49N 49°29' E 000°10'0 0.0
2015-Jan-21 22:46N 49°29' E 000°10'0 0.0
2015-Jan-21 22:31N 49°29' E 000°10'0 0.0
2015-Jan-21 21:31N 49°29' E 000°10'0 0.0
2015-Jan-21 20:31N 49°29' E 000°10'0 0.0
2015-Jan-21 19:31N 49°29' E 000°10'0 0.0
2015-Jan-21 18:31N 49°29' E 000°10'0 0.0
2015-Jan-21 17:31N 49°29' E 000°10'0 0.0
2015-Jan-21 16:31N 49°29' E 000°10'0 0.0
2015-Jan-21 15:31N 49°29' E 000°10'0 0.0
2015-Jan-21 14:31N 49°29' E 000°10'0 0.0
2015-Jan-21 13:31N 49°29' E 000°10'0 0.0
2015-Jan-21 12:31N 49°29' E 000°10'0 0.0
2015-Jan-21 11:31N 49°29' E 000°10'0 0.0
2015-Jan-21 10:31N 49°29' E 000°10'0 0.0
2015-Jan-21 09:31N 49°29' E 000°10'0 0.0
2015-Jan-21 08:31N 49°29' E 000°10'0 0.0
2015-Jan-21 07:31N 49°29' E 000°10'0 0.0
2015-Jan-21 06:31N 49°29' E 000°10'0 0.3
2015-Jan-21 05:33N 49°28' E 000°10'8 8.2
2015-Jan-21 04:33N 49°31' W 000°03'1111.1
2015-Jan-21 03:33N 49°40' W 000°11'  

Dump ship's entire track history